createdAt,value
2023-10-14T00:01:38.335Z,18.11
2023-10-14T00:04:11.437Z,18.14
2023-10-14T00:06:46.743Z,18.17
2023-10-14T00:09:13.708Z,18.19
2023-10-14T00:11:51.358Z,18.19
2023-10-14T00:14:18.287Z,18.22
2023-10-14T00:16:55.298Z,18.24
2023-10-14T00:19:24.040Z,18.25
2023-10-14T00:21:51.955Z,18.27
2023-10-14T00:24:31.336Z,18.25
2023-10-14T00:26:58.916Z,18.26
2023-10-14T00:29:30.596Z,18.28
2023-10-14T00:32:00.176Z,18.29
2023-10-14T00:34:27.198Z,18.29
2023-10-14T00:37:03.235Z,18.27
2023-10-14T00:39:30.124Z,18.35
2023-10-14T00:42:00.454Z,18.25
2023-10-14T00:44:29.402Z,18.07
2023-10-14T00:46:56.931Z,17.87
2023-10-14T00:49:34.381Z,17.69
2023-10-14T00:52:10.847Z,17.51
2023-10-14T00:54:47.431Z,17.32
2023-10-14T00:57:18.826Z,17.14
2023-10-14T00:59:51.699Z,17.01
2023-10-14T01:11:04.688Z,16.73
2023-10-14T01:13:31.226Z,16.66
2023-10-14T01:16:11.593Z,16.66
2023-10-14T01:18:40.950Z,16.70
2023-10-14T01:21:15.463Z,16.63
2023-10-14T01:23:59.336Z,16.63
2023-10-14T01:26:29.274Z,16.63
2023-10-14T01:29:02.064Z,16.66
2023-10-14T01:31:33.427Z,16.60
2023-10-14T01:34:03.321Z,16.57
2023-10-14T01:36:33.905Z,16.55
2023-10-14T01:39:12.769Z,16.49
2023-10-14T01:41:39.511Z,16.49
2023-10-14T01:44:10.771Z,16.46
2023-10-14T01:46:43.738Z,16.48
2023-10-14T01:49:18.405Z,16.50
2023-10-14T01:51:49.639Z,16.52
2023-10-14T01:54:17.595Z,16.51
2023-10-14T01:56:47.274Z,16.55
2023-10-14T01:59:15.908Z,16.52
2023-10-14T02:01:45.430Z,16.50
2023-10-14T02:04:16.710Z,16.57
2023-10-14T02:06:49.819Z,16.57
2023-10-14T02:09:18.416Z,16.54
2023-10-14T02:11:48.664Z,16.54
2023-10-14T02:14:17.186Z,16.54
2023-10-14T02:16:45.387Z,16.47
2023-10-14T02:19:24.908Z,16.47
2023-10-14T02:22:11.935Z,16.47
2023-10-14T02:24:38.837Z,16.48
2023-10-14T02:27:13.228Z,16.48
2023-10-14T02:29:47.814Z,16.47
2023-10-14T02:32:15.123Z,16.51
2023-10-14T02:34:46.115Z,16.52
2023-10-14T02:37:17.130Z,16.53
2023-10-14T02:39:49.868Z,16.54
2023-10-14T02:42:17.133Z,16.49
2023-10-14T02:44:50.304Z,16.42
2023-10-14T02:47:19.101Z,16.37
2023-10-14T02:49:47.408Z,16.37
2023-10-14T02:52:19.440Z,16.36
2023-10-14T02:55:21.421Z,16.31
2023-10-14T02:57:48.340Z,16.29
2023-10-14T03:00:25.153Z,16.28
2023-10-14T03:02:56.736Z,16.23
2023-10-14T03:05:43.982Z,16.13
2023-10-14T03:08:13.370Z,16.11
2023-10-14T03:11:00.988Z,16.10
2023-10-14T03:13:31.002Z,16.04
2023-10-14T03:15:59.413Z,15.97
2023-10-14T03:18:40.428Z,15.98
2023-10-14T03:21:29.745Z,15.99
2023-10-14T03:23:58.359Z,15.96
2023-10-14T03:26:33.373Z,15.95
2023-10-14T03:29:07.363Z,15.92
2023-10-14T03:31:38.231Z,15.91
2023-10-14T03:34:09.999Z,15.89
2023-10-14T03:36:36.647Z,15.88
2023-10-14T03:39:20.176Z,15.92
2023-10-14T03:41:53.140Z,15.89
2023-10-14T03:44:25.839Z,15.98
2023-10-14T03:47:01.733Z,16.02
2023-10-14T03:49:28.713Z,16.01
2023-10-14T03:51:58.717Z,15.98
2023-10-14T03:54:27.646Z,15.93
2023-10-14T03:56:58.436Z,15.90
2023-10-14T03:59:26.742Z,15.88
2023-10-14T04:01:59.958Z,15.88
2023-10-14T04:04:28.224Z,15.84
2023-10-14T04:07:01.824Z,15.84
2023-10-14T04:09:40.210Z,15.81
2023-10-14T04:12:13.461Z,15.80
2023-10-14T04:14:42.311Z,15.82
2023-10-14T04:17:30.293Z,15.82
2023-10-14T04:20:09.596Z,15.82
2023-10-14T04:22:37.072Z,15.86
2023-10-14T04:25:14.658Z,15.87
2023-10-14T04:27:54.107Z,15.88
2023-10-14T04:30:28.387Z,15.86
2023-10-14T04:32:57.873Z,15.82
2023-10-14T04:35:25.462Z,15.82
2023-10-14T04:37:53.253Z,15.82
2023-10-14T04:40:33.582Z,15.82
2023-10-14T04:43:20.540Z,15.82
2023-10-14T04:46:02.113Z,15.82
2023-10-14T04:48:37.392Z,15.82
2023-10-14T04:51:09.902Z,15.82
2023-10-14T04:53:37.239Z,15.81
2023-10-14T04:56:11.168Z,15.81
2023-10-14T04:58:41.587Z,15.80
2023-10-14T05:01:19.378Z,15.82
2023-10-14T05:03:51.890Z,15.82
2023-10-14T05:06:18.782Z,15.80
2023-10-14T05:08:52.762Z,15.79
2023-10-14T05:11:20.103Z,15.78
2023-10-14T05:13:56.476Z,15.78
2023-10-14T05:16:23.641Z,15.78
2023-10-14T05:19:20.482Z,15.78
2023-10-14T05:21:47.102Z,15.77
2023-10-14T05:24:14.254Z,15.76
2023-10-14T05:26:48.662Z,15.78
2023-10-14T05:29:19.587Z,15.77
2023-10-14T05:31:52.676Z,15.78
2023-10-14T05:34:27.927Z,15.76
2023-10-14T05:36:58.649Z,15.74
2023-10-14T05:39:39.066Z,15.74
2023-10-14T05:42:15.235Z,15.75
2023-10-14T05:44:50.893Z,15.77
2023-10-14T05:47:20.552Z,15.84
2023-10-14T05:49:48.029Z,15.81
2023-10-14T05:52:15.089Z,15.79
2023-10-14T05:54:48.173Z,15.80
2023-10-14T05:57:14.800Z,15.81
2023-10-14T05:59:42.638Z,15.81
2023-10-14T06:02:18.256Z,15.83
2023-10-14T06:04:47.419Z,15.81
2023-10-14T06:07:14.201Z,15.80
2023-10-14T06:09:46.897Z,15.82
2023-10-14T06:12:15.085Z,15.83
2023-10-14T06:14:45.989Z,15.80
2023-10-14T06:17:13.474Z,15.81
2023-10-14T06:19:40.409Z,15.85
2023-10-14T06:22:10.077Z,15.83
2023-10-14T06:24:37.743Z,15.85
2023-10-14T06:27:10.696Z,15.87
2023-10-14T06:29:37.871Z,15.86
2023-10-14T06:32:19.380Z,15.86
2023-10-14T06:34:50.830Z,15.87
2023-10-14T06:37:19.376Z,15.85
2023-10-14T06:39:47.914Z,15.87
2023-10-14T06:42:18.445Z,15.88
2023-10-14T06:44:47.304Z,15.88
2023-10-14T06:47:14.318Z,15.88
2023-10-14T06:49:43.430Z,15.90
2023-10-14T06:52:20.220Z,15.92
2023-10-14T06:54:52.458Z,15.94
2023-10-14T06:57:19.507Z,15.96
2023-10-14T06:59:46.916Z,15.95
2023-10-14T07:02:15.334Z,15.96
2023-10-14T07:04:45.590Z,15.98
2023-10-14T07:07:14.305Z,16.02
2023-10-14T07:09:46.071Z,16.02
2023-10-14T07:12:16.106Z,16.04
2023-10-14T07:14:45.822Z,16.03
2023-10-14T07:17:28.286Z,16.05
2023-10-14T07:19:54.792Z,16.08
2023-10-14T07:22:24.841Z,16.08
2023-10-14T07:24:56.440Z,16.08
2023-10-14T07:27:23.045Z,16.07
2023-10-14T07:29:49.743Z,16.09
2023-10-14T07:32:21.503Z,16.14
2023-10-14T07:34:51.576Z,16.18
2023-10-14T07:37:18.292Z,16.18
2023-10-14T07:39:55.500Z,16.18
2023-10-14T07:42:23.135Z,16.24
2023-10-14T07:44:49.983Z,16.25
2023-10-14T07:47:18.297Z,16.30
2023-10-14T07:49:46.077Z,16.35
2023-10-14T07:52:16.192Z,16.45
2023-10-14T07:54:54.426Z,16.56
2023-10-14T07:57:22.884Z,16.60
2023-10-14T07:59:52.042Z,16.66
2023-10-14T08:02:19.818Z,16.74
2023-10-14T08:04:47.463Z,16.86
2023-10-14T08:07:15.720Z,16.95
2023-10-14T08:09:44.351Z,17.01
2023-10-14T08:12:15.586Z,17.06
2023-10-14T08:14:42.764Z,17.06
2023-10-14T08:17:13.358Z,17.06
2023-10-14T08:19:40.478Z,17.08
2023-10-14T08:22:07.078Z,17.09
2023-10-14T08:24:40.195Z,17.11
2023-10-14T08:27:06.733Z,17.13
2023-10-14T08:29:34.091Z,17.14
2023-10-14T08:32:02.469Z,17.17
2023-10-14T08:34:29.050Z,17.19
2023-10-14T08:36:58.042Z,17.18
2023-10-14T08:39:25.744Z,17.18
2023-10-14T08:41:53.165Z,17.15
2023-10-14T08:44:28.451Z,17.12
2023-10-14T08:46:58.726Z,17.09
2023-10-14T08:49:28.367Z,17.06
2023-10-14T08:51:56.497Z,17.07
2023-10-14T08:54:26.219Z,17.08
2023-10-14T08:56:54.130Z,17.10
2023-10-14T08:59:30.215Z,17.11
2023-10-14T09:01:59.185Z,17.13
2023-10-14T09:04:31.682Z,17.13
2023-10-14T09:07:05.589Z,17.14
2023-10-14T09:09:34.796Z,17.15
2023-10-14T09:12:12.600Z,17.14
2023-10-14T09:14:40.483Z,17.12
2023-10-14T09:17:09.831Z,17.10
2023-10-14T09:19:56.135Z,17.08
2023-10-14T09:22:23.873Z,17.06
2023-10-14T09:24:52.425Z,17.05
2023-10-14T09:27:21.159Z,17.06
2023-10-14T09:29:48.021Z,17.05
2023-10-14T09:32:15.472Z,17.04
2023-10-14T09:34:43.105Z,17.02
2023-10-14T09:37:12.051Z,17.01
2023-10-14T09:39:42.721Z,17.01
2023-10-14T09:42:15.462Z,17.04
2023-10-14T09:44:44.129Z,17.02
2023-10-14T09:47:14.845Z,17.02
2023-10-14T09:49:46.504Z,17.02
2023-10-14T09:52:16.995Z,17.02
2023-10-14T09:54:44.051Z,17.01
2023-10-14T09:57:14.168Z,16.99
2023-10-14T09:59:45.512Z,16.93
2023-10-14T10:02:13.147Z,16.89
2023-10-14T10:04:49.556Z,16.84
2023-10-14T10:07:28.456Z,16.82
2023-10-14T10:10:16.727Z,16.84
2023-10-14T10:12:46.310Z,16.90
2023-10-14T10:15:22.296Z,16.92
2023-10-14T10:17:57.570Z,16.93
2023-10-14T10:20:40.440Z,16.94
2023-10-14T10:23:08.350Z,16.99
2023-10-14T10:25:37.773Z,17.00
2023-10-14T10:28:29.692Z,17.04
2023-10-14T10:30:58.867Z,17.07
2023-10-14T10:34:00.877Z,17.11
2023-10-14T10:36:32.379Z,17.15
2023-10-14T10:39:18.785Z,17.20
2023-10-14T10:41:51.620Z,17.21
2023-10-14T10:44:22.403Z,17.27
2023-10-14T10:46:52.001Z,17.31
2023-10-14T10:50:04.361Z,17.37
2023-10-14T10:52:37.681Z,17.55
2023-10-14T10:55:05.006Z,17.70
2023-10-14T10:57:37.133Z,17.79
2023-10-14T11:00:10.817Z,17.91
2023-10-14T11:02:37.745Z,17.95
2023-10-14T11:05:04.659Z,17.97
2023-10-14T11:07:33.891Z,18.03
2023-10-14T11:10:03.467Z,18.06
2023-10-14T11:12:38.841Z,18.07
2023-10-14T11:15:09.345Z,18.06
2023-10-14T11:17:39.111Z,18.09
2023-10-14T11:20:06.593Z,18.20
2023-10-14T11:22:40.071Z,18.38
2023-10-14T11:25:26.739Z,18.62
2023-10-14T11:27:57.525Z,18.81
2023-10-14T11:30:29.962Z,19.03
2023-10-14T11:33:10.134Z,19.22
2023-10-14T11:35:39.829Z,19.35
2023-10-14T11:38:14.655Z,19.45
2023-10-14T11:40:46.623Z,19.53
2023-10-14T11:43:13.248Z,19.67
2023-10-14T11:45:44.870Z,19.69
2023-10-14T11:48:28.306Z,19.76
2023-10-14T11:51:03.619Z,19.92
2023-10-14T11:53:35.756Z,19.88
2023-10-14T11:56:05.137Z,19.83
2023-10-14T11:58:34.364Z,19.71
2023-10-14T12:01:03.161Z,19.56
2023-10-14T12:03:30.036Z,19.43
2023-10-14T12:06:00.664Z,19.31
2023-10-14T12:08:31.292Z,19.07
2023-10-14T12:10:58.911Z,18.81
2023-10-14T12:13:46.348Z,18.60
2023-10-14T12:16:16.351Z,18.27
2023-10-14T12:18:47.226Z,17.96
2023-10-14T12:21:14.542Z,17.65
2023-10-14T12:23:43.576Z,17.39
2023-10-14T12:26:31.049Z,17.02
2023-10-14T12:29:01.696Z,16.74
2023-10-14T12:31:29.037Z,16.55
2023-10-14T12:33:55.711Z,16.39
2023-10-14T12:36:23.980Z,16.16
2023-10-14T12:38:50.581Z,15.94
2023-10-14T12:41:23.137Z,15.70
2023-10-14T12:43:56.500Z,15.39
2023-10-14T12:46:31.794Z,15.12
2023-10-14T12:49:00.219Z,15.01
2023-10-14T12:51:27.767Z,14.88
2023-10-14T12:53:59.224Z,14.78
2023-10-14T12:56:31.739Z,14.69
2023-10-14T12:58:59.168Z,14.62
2023-10-14T13:01:26.108Z,14.52
2023-10-14T13:03:55.802Z,14.46
2023-10-14T13:06:25.511Z,14.40
2023-10-14T13:08:53.819Z,14.34
2023-10-14T13:11:22.820Z,14.25
2023-10-14T13:13:53.815Z,14.17
2023-10-14T13:16:27.471Z,14.13
2023-10-14T13:18:58.352Z,14.04
2023-10-14T13:21:30.666Z,14.02
2023-10-14T13:23:58.038Z,13.98
2023-10-14T13:26:25.122Z,13.92
2023-10-14T13:29:00.617Z,13.87
2023-10-14T13:31:28.901Z,13.86
2023-10-14T13:33:58.063Z,13.87
2023-10-14T13:36:24.873Z,13.88
2023-10-14T13:38:51.617Z,13.87
2023-10-14T13:41:18.816Z,13.84
2023-10-14T13:43:48.482Z,13.89
2023-10-14T13:46:19.219Z,13.85
2023-10-14T13:48:45.922Z,13.82
2023-10-14T13:51:12.939Z,13.78
2023-10-14T13:53:46.025Z,13.74
2023-10-14T13:56:12.556Z,13.69
2023-10-14T13:58:40.976Z,13.65
2023-10-14T14:01:12.971Z,13.64
2023-10-14T14:03:42.064Z,13.63
2023-10-14T14:06:11.213Z,13.61
2023-10-14T14:08:37.743Z,13.59
2023-10-14T14:11:08.364Z,13.58
2023-10-14T14:13:35.261Z,13.58
2023-10-14T14:16:06.734Z,13.58
2023-10-14T14:18:33.400Z,13.58
2023-10-14T14:21:00.083Z,13.57
2023-10-14T14:23:28.461Z,13.59
2023-10-14T14:25:55.039Z,13.58
2023-10-14T14:28:31.477Z,13.57
2023-10-14T14:31:02.097Z,13.55
2023-10-14T14:33:30.619Z,13.57
2023-10-14T14:35:57.307Z,13.57
2023-10-14T14:38:24.429Z,13.53
2023-10-14T14:40:52.010Z,13.51
2023-10-14T14:43:19.024Z,13.52
2023-10-14T14:45:46.876Z,13.50
2023-10-14T14:48:13.691Z,13.49
2023-10-14T14:50:47.543Z,13.48
2023-10-14T14:53:14.151Z,13.46
2023-10-14T14:55:44.267Z,13.44
2023-10-14T14:58:12.784Z,13.43
2023-10-14T15:00:43.499Z,13.39
2023-10-14T15:03:13.309Z,13.34
2023-10-14T15:05:44.368Z,13.29
2023-10-14T15:08:13.708Z,13.22
2023-10-14T15:10:48.350Z,13.18
2023-10-14T15:13:18.384Z,13.12
2023-10-14T15:15:55.099Z,13.08
2023-10-14T15:18:23.465Z,13.05
2023-10-14T15:20:50.385Z,13.02
2023-10-14T15:23:17.157Z,12.99
2023-10-14T15:25:45.384Z,12.97
2023-10-14T15:28:12.868Z,12.94
2023-10-14T15:30:40.259Z,12.94
2023-10-14T15:33:07.493Z,12.90
2023-10-14T15:35:35.920Z,12.88
2023-10-14T15:38:10.267Z,12.84
2023-10-14T15:40:37.324Z,12.82
2023-10-14T15:43:06.836Z,12.81
2023-10-14T15:45:38.294Z,12.77
2023-10-14T15:48:17.018Z,12.74
2023-10-14T15:50:49.611Z,12.71
2023-10-14T15:53:16.655Z,12.69
2023-10-14T15:55:43.731Z,12.69
2023-10-14T15:58:11.809Z,12.68
2023-10-14T16:00:44.386Z,12.66
2023-10-14T16:03:11.479Z,12.64
2023-10-14T16:05:42.502Z,12.62
2023-10-14T16:08:14.909Z,12.60
2023-10-14T16:10:45.564Z,12.58
2023-10-14T16:13:16.387Z,12.53
2023-10-14T16:18:16.923Z,12.51
2023-10-14T16:20:44.781Z,12.49
2023-10-14T16:23:13.158Z,12.47
2023-10-14T16:25:43.642Z,12.45
2023-10-14T16:28:10.448Z,12.43
2023-10-14T16:30:43.431Z,12.42
2023-10-14T16:33:12.384Z,12.41
2023-10-14T16:35:39.047Z,12.38
2023-10-14T16:38:10.272Z,12.35
2023-10-14T16:40:37.595Z,12.36
2023-10-14T16:43:06.450Z,12.31
2023-10-14T16:45:43.286Z,12.30
2023-10-14T16:48:13.217Z,12.27
2023-10-14T16:50:40.749Z,12.28
2023-10-14T16:53:08.516Z,12.26
2023-10-14T16:55:40.584Z,12.25
2023-10-14T16:58:07.645Z,12.25
2023-10-14T17:00:35.461Z,12.25
2023-10-14T17:03:03.846Z,12.24
2023-10-14T17:05:33.718Z,12.23
2023-10-14T17:08:04.892Z,12.22
2023-10-14T17:10:33.572Z,12.21
2023-10-14T17:13:02.299Z,12.20
2023-10-14T17:15:31.845Z,12.20
2023-10-14T17:18:01.596Z,12.19
2023-10-14T17:20:29.777Z,12.19
2023-10-14T17:22:59.359Z,12.19
2023-10-14T17:25:30.626Z,12.18
2023-10-14T17:28:00.310Z,12.17
2023-10-14T17:30:32.268Z,12.17
2023-10-14T17:33:02.828Z,12.17
2023-10-14T17:35:30.510Z,12.15
2023-10-14T17:38:03.438Z,12.15
2023-10-14T17:40:30.640Z,12.15
2023-10-14T17:43:08.673Z,12.14
2023-10-14T17:45:36.017Z,12.12
2023-10-14T17:48:07.616Z,12.10
2023-10-14T17:50:38.365Z,12.07
2023-10-14T17:53:14.038Z,12.07
2023-10-14T17:55:46.424Z,12.07
2023-10-14T17:58:19.654Z,12.05
2023-10-14T18:00:50.910Z,12.03
2023-10-14T18:03:19.929Z,12.01
2023-10-14T18:05:48.997Z,11.99
2023-10-14T18:08:22.171Z,11.95
2023-10-14T18:10:50.530Z,11.92
2023-10-14T18:13:20.448Z,11.91
2023-10-14T18:15:51.554Z,11.90
2023-10-14T18:18:20.744Z,11.86
2023-10-14T18:20:47.358Z,11.84
2023-10-14T18:23:18.496Z,11.83
2023-10-14T18:25:54.003Z,11.81
2023-10-14T18:28:22.812Z,11.81
2023-10-14T18:30:52.361Z,11.81
2023-10-14T18:33:27.205Z,11.79
2023-10-14T18:35:53.906Z,11.78
2023-10-14T18:38:23.812Z,11.77
2023-10-14T18:40:50.942Z,11.77
2023-10-14T18:43:17.525Z,11.75
2023-10-14T18:45:44.329Z,11.76
2023-10-14T18:48:15.939Z,11.75
2023-10-14T18:50:44.386Z,11.75
2023-10-14T18:53:13.004Z,11.73
2023-10-14T18:55:41.803Z,11.72
2023-10-14T18:58:10.819Z,11.70
2023-10-14T19:00:46.470Z,11.69
2023-10-14T19:03:15.709Z,11.70
2023-10-14T19:05:42.595Z,11.69
2023-10-14T19:08:13.636Z,11.69
2023-10-14T19:10:43.677Z,11.69
2023-10-14T19:13:10.603Z,11.69
2023-10-14T19:15:40.769Z,11.68
2023-10-14T19:18:17.120Z,11.71
2023-10-14T19:20:50.607Z,11.71
2023-10-14T19:23:24.820Z,11.73
2023-10-14T19:25:56.052Z,11.74
2023-10-14T19:28:27.410Z,11.72
2023-10-14T19:31:01.549Z,11.74
2023-10-14T19:33:28.326Z,11.74
2023-10-14T19:35:59.161Z,11.71
2023-10-14T19:38:27.844Z,11.73
2023-10-14T19:41:09.216Z,11.75
2023-10-14T19:43:37.809Z,11.74
2023-10-14T19:46:10.345Z,11.73
2023-10-14T19:48:38.111Z,11.73
2023-10-14T19:51:18.804Z,11.71
2023-10-14T19:53:47.570Z,11.72
2023-10-14T19:56:15.859Z,11.73
2023-10-14T19:58:44.839Z,11.70
2023-10-14T20:01:16.951Z,11.68
2023-10-14T20:03:47.105Z,11.65
2023-10-14T20:06:20.107Z,11.63
2023-10-14T20:08:47.783Z,11.65
2023-10-14T20:11:14.838Z,11.61
2023-10-14T20:13:42.843Z,11.61
2023-10-14T20:16:10.481Z,11.59
2023-10-14T20:18:38.896Z,11.57
2023-10-14T20:21:07.485Z,11.57
2023-10-14T20:23:35.141Z,11.57
2023-10-14T20:26:02.580Z,11.55
2023-10-14T20:28:29.405Z,11.58
2023-10-14T20:31:00.504Z,11.55
2023-10-14T20:33:29.135Z,11.53
2023-10-14T20:35:56.890Z,11.51
2023-10-14T20:38:25.807Z,11.48
2023-10-14T20:40:52.395Z,11.48
2023-10-14T20:43:21.373Z,11.47
2023-10-14T20:45:52.471Z,11.46
2023-10-14T20:48:19.045Z,11.49
2023-10-14T20:50:49.842Z,11.46
2023-10-14T20:53:19.767Z,11.44
2023-10-14T20:55:47.919Z,11.44
2023-10-14T20:58:17.163Z,11.35
2023-10-14T21:00:43.931Z,11.27
2023-10-14T21:03:23.164Z,11.26
2023-10-14T21:05:56.437Z,11.28
2023-10-14T21:08:29.300Z,11.21
2023-10-14T21:10:57.511Z,11.17
2023-10-14T21:13:27.326Z,11.23
2023-10-14T21:16:07.933Z,11.23
2023-10-14T21:18:35.820Z,11.23
2023-10-14T21:21:11.177Z,11.24
2023-10-14T21:23:37.995Z,11.26
2023-10-14T21:26:05.193Z,11.25
2023-10-14T21:28:33.721Z,11.26
2023-10-14T21:31:00.931Z,11.23
2023-10-14T21:33:28.448Z,11.16
2023-10-14T21:35:57.934Z,11.07
2023-10-14T21:38:26.500Z,11.00
2023-10-14T21:40:53.818Z,10.97
2023-10-14T21:43:22.358Z,10.94
2023-10-14T21:45:48.965Z,10.91
2023-10-14T21:48:15.606Z,10.91
2023-10-14T21:50:44.376Z,10.91
2023-10-14T21:53:11.205Z,10.89
2023-10-14T21:55:40.440Z,10.86
2023-10-14T21:58:08.800Z,10.90
2023-10-14T22:00:40.450Z,10.93
2023-10-14T22:03:15.632Z,10.89
2023-10-14T22:05:44.948Z,10.88
2023-10-14T22:08:20.063Z,10.84
2023-10-14T22:10:51.439Z,10.84
2023-10-14T22:13:18.326Z,10.90
2023-10-14T22:15:46.697Z,10.89
2023-10-14T22:18:13.949Z,10.82
2023-10-14T22:20:41.740Z,10.81
2023-10-14T22:23:09.331Z,10.72
2023-10-14T22:25:36.825Z,10.72
2023-10-14T22:28:09.487Z,10.83
2023-10-14T22:30:44.093Z,10.88
2023-10-14T22:33:12.126Z,10.94
2023-10-14T22:35:38.868Z,10.98
2023-10-14T22:38:12.009Z,10.99
2023-10-14T22:40:39.854Z,11.01
2023-10-14T22:43:16.433Z,11.02
2023-10-14T22:45:43.427Z,11.06
2023-10-14T22:48:11.193Z,11.05
2023-10-14T22:50:38.857Z,11.07
2023-10-14T22:53:05.580Z,11.07
2023-10-14T22:55:34.937Z,11.08
2023-10-14T22:58:03.739Z,11.05
2023-10-14T23:00:34.448Z,11.05
2023-10-14T23:03:01.256Z,11.07
2023-10-14T23:05:32.853Z,11.10
2023-10-14T23:08:01.430Z,11.08
2023-10-14T23:10:31.365Z,11.06
2023-10-14T23:13:01.268Z,10.83
2023-10-14T23:15:31.031Z,10.78
2023-10-14T23:17:59.837Z,10.78
2023-10-14T23:20:28.598Z,10.79
2023-10-14T23:22:56.632Z,10.72
2023-10-14T23:25:27.332Z,10.64
2023-10-14T23:27:59.760Z,10.56
2023-10-14T23:30:27.613Z,10.41
2023-10-14T23:32:56.551Z,10.32
2023-10-14T23:35:27.098Z,10.23
2023-10-14T23:38:00.247Z,10.18
2023-10-14T23:40:32.226Z,10.19
2023-10-14T23:43:03.310Z,10.28
2023-10-14T23:45:36.500Z,10.32
2023-10-14T23:48:05.839Z,10.30
2023-10-14T23:50:39.487Z,10.29
2023-10-14T23:53:10.021Z,10.30
2023-10-14T23:55:36.883Z,10.26
2023-10-14T23:58:04.532Z,10.24
